sensor_id;sensor_type;location;lat;lon;timestamp;P1;durP1;ratioP1;P2;durP2;ratioP2
17145;SDS011;8688;54.444;18.444;2023-04-25T00:00:33;5.47;;;3.70;;
17145;SDS011;8688;54.444;18.444;2023-04-25T00:03:00;5.20;;;3.90;;
17145;SDS011;8688;54.444;18.444;2023-04-25T00:05:29;4.93;;;3.22;;
17145;SDS011;8688;54.444;18.444;2023-04-25T00:07:57;4.70;;;3.65;;
17145;SDS011;8688;54.444;18.444;2023-04-25T00:10:25;5.78;;;3.42;;
17145;SDS011;8688;54.444;18.444;2023-04-25T00:12:52;4.60;;;3.47;;
17145;SDS011;8688;54.444;18.444;2023-04-25T00:15:20;4.30;;;3.42;;
17145;SDS011;8688;54.444;18.444;2023-04-25T00:17:48;5.63;;;4.57;;
17145;SDS011;8688;54.444;18.444;2023-04-25T00:20:18;8.23;;;4.40;;
17145;SDS011;8688;54.444;18.444;2023-04-25T00:22:47;4.10;;;3.30;;
17145;SDS011;8688;54.444;18.444;2023-04-25T00:25:14;4.75;;;3.40;;
17145;SDS011;8688;54.444;18.444;2023-04-25T00:27:41;3.83;;;2.88;;
17145;SDS011;8688;54.444;18.444;2023-04-25T00:30:09;3.53;;;3.00;;
17145;SDS011;8688;54.444;18.444;2023-04-25T00:32:38;6.13;;;3.60;;
17145;SDS011;8688;54.444;18.444;2023-04-25T00:35:05;4.97;;;3.60;;
17145;SDS011;8688;54.444;18.444;2023-04-25T00:37:33;4.18;;;3.22;;
17145;SDS011;8688;54.444;18.444;2023-04-25T00:40:02;3.83;;;3.40;;
17145;SDS011;8688;54.444;18.444;2023-04-25T00:42:33;5.60;;;2.83;;
17145;SDS011;8688;54.444;18.444;2023-04-25T00:45:02;3.83;;;2.97;;
17145;SDS011;8688;54.444;18.444;2023-04-25T00:47:32;3.72;;;2.92;;
17145;SDS011;8688;54.444;18.444;2023-04-25T00:50:01;4.43;;;2.55;;
17145;SDS011;8688;54.444;18.444;2023-04-25T00:52:29;3.30;;;2.80;;
17145;SDS011;8688;54.444;18.444;2023-04-25T00:54:56;3.65;;;2.83;;
17145;SDS011;8688;54.444;18.444;2023-04-25T00:57:26;3.70;;;2.80;;
17145;SDS011;8688;54.444;18.444;2023-04-25T00:59:53;4.05;;;3.13;;
17145;SDS011;8688;54.444;18.444;2023-04-25T01:02:21;5.75;;;3.78;;
17145;SDS011;8688;54.444;18.444;2023-04-25T01:04:50;5.68;;;3.58;;
17145;SDS011;8688;54.444;18.444;2023-04-25T01:07:18;5.45;;;3.60;;
17145;SDS011;8688;54.444;18.444;2023-04-25T01:09:46;4.78;;;3.88;;
17145;SDS011;8688;54.444;18.444;2023-04-25T01:12:13;5.20;;;3.50;;
17145;SDS011;8688;54.444;18.444;2023-04-25T01:14:42;5.40;;;3.88;;
17145;SDS011;8688;54.444;18.444;2023-04-25T01:17:10;4.88;;;3.97;;
17145;SDS011;8688;54.444;18.444;2023-04-25T01:19:37;9.25;;;4.13;;
17145;SDS011;8688;54.444;18.444;2023-04-25T01:22:06;5.97;;;4.00;;
17145;SDS011;8688;54.444;18.444;2023-04-25T01:24:35;6.13;;;4.13;;
17145;SDS011;8688;54.444;18.444;2023-04-25T01:27:03;5.00;;;4.05;;
17145;SDS011;8688;54.444;18.444;2023-04-25T01:29:31;6.55;;;3.97;;
17145;SDS011;8688;54.444;18.444;2023-04-25T01:31:59;8.77;;;4.70;;
17145;SDS011;8688;54.444;18.444;2023-04-25T01:34:28;5.20;;;4.22;;
17145;SDS011;8688;54.444;18.444;2023-04-25T01:36:55;5.60;;;4.30;;
17145;SDS011;8688;54.444;18.444;2023-04-25T01:39:27;7.82;;;4.22;;
17145;SDS011;8688;54.444;18.444;2023-04-25T01:41:55;6.80;;;4.65;;
17145;SDS011;8688;54.444;18.444;2023-04-25T01:44:23;7.85;;;4.65;;
17145;SDS011;8688;54.444;18.444;2023-04-25T01:46:50;5.18;;;4.07;;
17145;SDS011;8688;54.444;18.444;2023-04-25T01:49:18;7.07;;;4.80;;
17145;SDS011;8688;54.444;18.444;2023-04-25T01:51:45;7.43;;;4.43;;
17145;SDS011;8688;54.444;18.444;2023-04-25T01:54:13;5.70;;;4.40;;
17145;SDS011;8688;54.444;18.444;2023-04-25T01:56:42;5.45;;;4.20;;
17145;SDS011;8688;54.444;18.444;2023-04-25T01:59:09;6.07;;;4.68;;
17145;SDS011;8688;54.444;18.444;2023-04-25T02:01:37;6.53;;;4.97;;
17145;SDS011;8688;54.444;18.444;2023-04-25T02:04:04;5.90;;;4.80;;
17145;SDS011;8688;54.444;18.444;2023-04-25T02:06:31;5.95;;;4.43;;
17145;SDS011;8688;54.444;18.444;2023-04-25T02:08:59;6.75;;;4.63;;
17145;SDS011;8688;54.444;18.444;2023-04-25T02:11:27;6.47;;;4.68;;
17145;SDS011;8688;54.444;18.444;2023-04-25T02:13:56;8.52;;;4.97;;
17145;SDS011;8688;54.444;18.444;2023-04-25T02:16:23;5.50;;;4.43;;
17145;SDS011;8688;54.444;18.444;2023-04-25T02:18:50;7.18;;;4.95;;
17145;SDS011;8688;54.444;18.444;2023-04-25T02:21:19;5.53;;;4.68;;
17145;SDS011;8688;54.444;18.444;2023-04-25T02:23:46;5.20;;;4.70;;
17145;SDS011;8688;54.444;18.444;2023-04-25T02:26:14;6.93;;;4.72;;
17145;SDS011;8688;54.444;18.444;2023-04-25T02:28:42;6.18;;;5.30;;
17145;SDS011;8688;54.444;18.444;2023-04-25T02:31:11;7.15;;;4.85;;
17145;SDS011;8688;54.444;18.444;2023-04-25T02:33:38;6.55;;;4.38;;
17145;SDS011;8688;54.444;18.444;2023-04-25T02:36:06;6.38;;;4.53;;
17145;SDS011;8688;54.444;18.444;2023-04-25T02:38:33;6.93;;;5.05;;
17145;SDS011;8688;54.444;18.444;2023-04-25T02:41:01;7.43;;;4.75;;
17145;SDS011;8688;54.444;18.444;2023-04-25T02:43:29;5.72;;;4.60;;
17145;SDS011;8688;54.444;18.444;2023-04-25T02:45:56;6.28;;;4.70;;
17145;SDS011;8688;54.444;18.444;2023-04-25T02:48:25;5.00;;;4.35;;
17145;SDS011;8688;54.444;18.444;2023-04-25T02:50:53;6.43;;;4.85;;
17145;SDS011;8688;54.444;18.444;2023-04-25T02:53:21;5.32;;;4.55;;
17145;SDS011;8688;54.444;18.444;2023-04-25T02:55:48;5.07;;;4.55;;
17145;SDS011;8688;54.444;18.444;2023-04-25T02:58:17;5.60;;;5.00;;
17145;SDS011;8688;54.444;18.444;2023-04-25T03:00:45;6.70;;;4.75;;
17145;SDS011;8688;54.444;18.444;2023-04-25T03:03:12;5.68;;;4.80;;
17145;SDS011;8688;54.444;18.444;2023-04-25T03:05:44;6.68;;;4.68;;
17145;SDS011;8688;54.444;18.444;2023-04-25T03:08:12;6.05;;;4.97;;
17145;SDS011;8688;54.444;18.444;2023-04-25T03:10:39;5.97;;;4.88;;
17145;SDS011;8688;54.444;18.444;2023-04-25T03:13:07;7.40;;;5.20;;
17145;SDS011;8688;54.444;18.444;2023-04-25T03:15:34;7.28;;;5.80;;
17145;SDS011;8688;54.444;18.444;2023-04-25T03:18:02;7.38;;;5.57;;
17145;SDS011;8688;54.444;18.444;2023-04-25T03:20:30;7.70;;;5.85;;
17145;SDS011;8688;54.444;18.444;2023-04-25T03:22:59;5.95;;;5.05;;
17145;SDS011;8688;54.444;18.444;2023-04-25T03:25:27;6.45;;;5.13;;
17145;SDS011;8688;54.444;18.444;2023-04-25T03:27:54;5.47;;;4.63;;
17145;SDS011;8688;54.444;18.444;2023-04-25T03:30:21;6.32;;;4.38;;
17145;SDS011;8688;54.444;18.444;2023-04-25T03:32:49;5.57;;;4.25;;
17145;SDS011;8688;54.444;18.444;2023-04-25T03:35:16;6.22;;;4.07;;
17145;SDS011;8688;54.444;18.444;2023-04-25T03:37:44;5.68;;;4.50;;
17145;SDS011;8688;54.444;18.444;2023-04-25T03:40:13;5.30;;;4.10;;
17145;SDS011;8688;54.444;18.444;2023-04-25T03:42:40;7.47;;;4.47;;
17145;SDS011;8688;54.444;18.444;2023-04-25T03:45:08;5.68;;;4.28;;
17145;SDS011;8688;54.444;18.444;2023-04-25T03:47:36;5.78;;;4.03;;
17145;SDS011;8688;54.444;18.444;2023-04-25T03:50:03;5.32;;;4.03;;
17145;SDS011;8688;54.444;18.444;2023-04-25T03:52:32;5.78;;;4.13;;
17145;SDS011;8688;54.444;18.444;2023-04-25T03:54:59;5.53;;;4.07;;
17145;SDS011;8688;54.444;18.444;2023-04-25T03:57:28;7.00;;;4.28;;
17145;SDS011;8688;54.444;18.444;2023-04-25T03:59:56;5.18;;;4.05;;
17145;SDS011;8688;54.444;18.444;2023-04-25T04:02:23;5.63;;;4.28;;
17145;SDS011;8688;54.444;18.444;2023-04-25T04:04:50;7.30;;;4.43;;
17145;SDS011;8688;54.444;18.444;2023-04-25T04:07:18;8.07;;;5.13;;
17145;SDS011;8688;54.444;18.444;2023-04-25T04:09:46;9.20;;;5.63;;
17145;SDS011;8688;54.444;18.444;2023-04-25T04:12:13;9.73;;;6.13;;
17145;SDS011;8688;54.444;18.444;2023-04-25T04:14:42;6.68;;;5.22;;
17145;SDS011;8688;54.444;18.444;2023-04-25T04:17:09;6.80;;;4.70;;
17145;SDS011;8688;54.444;18.444;2023-04-25T04:19:36;8.55;;;5.55;;
17145;SDS011;8688;54.444;18.444;2023-04-25T04:22:04;16.83;;;7.35;;
17145;SDS011;8688;54.444;18.444;2023-04-25T04:24:31;6.65;;;4.88;;
17145;SDS011;8688;54.444;18.444;2023-04-25T04:26:59;7.57;;;5.30;;
17145;SDS011;8688;54.444;18.444;2023-04-25T04:29:26;7.22;;;5.25;;
17145;SDS011;8688;54.444;18.444;2023-04-25T04:31:55;6.50;;;4.32;;
17145;SDS011;8688;54.444;18.444;2023-04-25T04:34:22;6.80;;;4.30;;
17145;SDS011;8688;54.444;18.444;2023-04-25T04:36:52;6.22;;;4.63;;
17145;SDS011;8688;54.444;18.444;2023-04-25T04:39:20;7.32;;;4.82;;
17145;SDS011;8688;54.444;18.444;2023-04-25T04:41:47;7.85;;;5.10;;
17145;SDS011;8688;54.444;18.444;2023-04-25T04:44:16;7.85;;;4.90;;
17145;SDS011;8688;54.444;18.444;2023-04-25T04:46:43;7.80;;;5.53;;
17145;SDS011;8688;54.444;18.444;2023-04-25T04:49:13;7.32;;;5.13;;
17145;SDS011;8688;54.444;18.444;2023-04-25T04:51:40;7.57;;;4.80;;
17145;SDS011;8688;54.444;18.444;2023-04-25T04:54:10;7.32;;;4.80;;
17145;SDS011;8688;54.444;18.444;2023-04-25T04:56:40;8.02;;;5.60;;
17145;SDS011;8688;54.444;18.444;2023-04-25T04:59:08;6.25;;;4.60;;
17145;SDS011;8688;54.444;18.444;2023-04-25T05:01:36;8.85;;;5.30;;
17145;SDS011;8688;54.444;18.444;2023-04-25T05:04:04;6.60;;;5.15;;
17145;SDS011;8688;54.444;18.444;2023-04-25T05:06:34;6.45;;;4.72;;
17145;SDS011;8688;54.444;18.444;2023-04-25T05:09:01;6.32;;;4.97;;
17145;SDS011;8688;54.444;18.444;2023-04-25T05:11:29;5.88;;;4.22;;
17145;SDS011;8688;54.444;18.444;2023-04-25T05:13:56;8.65;;;4.95;;
17145;SDS011;8688;54.444;18.444;2023-04-25T05:16:23;5.38;;;4.15;;
17145;SDS011;8688;54.444;18.444;2023-04-25T05:18:51;6.60;;;4.88;;
17145;SDS011;8688;54.444;18.444;2023-04-25T05:21:18;5.85;;;4.38;;
17145;SDS011;8688;54.444;18.444;2023-04-25T05:24:15;5.70;;;4.30;;
17145;SDS011;8688;54.444;18.444;2023-04-25T05:26:42;6.57;;;4.82;;
17145;SDS011;8688;54.444;18.444;2023-04-25T05:29:37;7.80;;;4.30;;
17145;SDS011;8688;54.444;18.444;2023-04-25T05:32:07;6.22;;;4.25;;
17145;SDS011;8688;54.444;18.444;2023-04-25T05:34:34;5.22;;;3.90;;
17145;SDS011;8688;54.444;18.444;2023-04-25T05:37:02;6.47;;;4.28;;
17145;SDS011;8688;54.444;18.444;2023-04-25T05:39:40;8.27;;;4.15;;
17145;SDS011;8688;54.444;18.444;2023-04-25T05:42:25;6.43;;;4.15;;
17145;SDS011;8688;54.444;18.444;2023-04-25T05:45:02;7.28;;;3.67;;
17145;SDS011;8688;54.444;18.444;2023-04-25T05:47:30;6.05;;;3.50;;
17145;SDS011;8688;54.444;18.444;2023-04-25T05:49:57;7.00;;;3.85;;
17145;SDS011;8688;54.444;18.444;2023-04-25T05:52:25;6.03;;;3.33;;
17145;SDS011;8688;54.444;18.444;2023-04-25T05:54:53;5.38;;;3.55;;
17145;SDS011;8688;54.444;18.444;2023-04-25T05:57:22;5.07;;;3.22;;
17145;SDS011;8688;54.444;18.444;2023-04-25T05:59:52;5.90;;;3.75;;
17145;SDS011;8688;54.444;18.444;2023-04-25T06:02:20;6.88;;;3.85;;
17145;SDS011;8688;54.444;18.444;2023-04-25T06:04:48;8.07;;;3.85;;
17145;SDS011;8688;54.444;18.444;2023-04-25T06:07:17;7.63;;;3.97;;
17145;SDS011;8688;54.444;18.444;2023-04-25T06:09:45;7.28;;;3.90;;
17145;SDS011;8688;54.444;18.444;2023-04-25T06:12:14;5.13;;;3.30;;
17145;SDS011;8688;54.444;18.444;2023-04-25T06:14:41;5.15;;;3.60;;
17145;SDS011;8688;54.444;18.444;2023-04-25T06:17:09;6.13;;;3.72;;
17145;SDS011;8688;54.444;18.444;2023-04-25T06:19:36;6.63;;;3.65;;
17145;SDS011;8688;54.444;18.444;2023-04-25T06:22:04;6.30;;;3.28;;
17145;SDS011;8688;54.444;18.444;2023-04-25T06:24:50;6.88;;;3.50;;
17145;SDS011;8688;54.444;18.444;2023-04-25T06:27:31;5.25;;;3.83;;
17145;SDS011;8688;54.444;18.444;2023-04-25T06:29:59;5.75;;;4.13;;
17145;SDS011;8688;54.444;18.444;2023-04-25T06:32:27;4.63;;;3.28;;
17145;SDS011;8688;54.444;18.444;2023-04-25T06:34:55;6.37;;;4.00;;
17145;SDS011;8688;54.444;18.444;2023-04-25T06:37:23;5.53;;;3.92;;
17145;SDS011;8688;54.444;18.444;2023-04-25T06:39:50;7.20;;;3.90;;
17145;SDS011;8688;54.444;18.444;2023-04-25T06:42:17;6.72;;;4.35;;
17145;SDS011;8688;54.444;18.444;2023-04-25T06:44:46;8.15;;;4.13;;
17145;SDS011;8688;54.444;18.444;2023-04-25T06:47:14;6.10;;;4.32;;
17145;SDS011;8688;54.444;18.444;2023-04-25T06:49:41;4.65;;;3.10;;
17145;SDS011;8688;54.444;18.444;2023-04-25T06:52:09;7.80;;;3.70;;
17145;SDS011;8688;54.444;18.444;2023-04-25T06:54:37;4.63;;;3.47;;
17145;SDS011;8688;54.444;18.444;2023-04-25T06:57:04;6.78;;;3.33;;
17145;SDS011;8688;54.444;18.444;2023-04-25T06:59:31;5.57;;;3.05;;
17145;SDS011;8688;54.444;18.444;2023-04-25T07:02:00;4.95;;;3.30;;
17145;SDS011;8688;54.444;18.444;2023-04-25T07:04:28;6.78;;;3.65;;
17145;SDS011;8688;54.444;18.444;2023-04-25T07:07:02;5.30;;;3.17;;
17145;SDS011;8688;54.444;18.444;2023-04-25T07:09:44;4.00;;;2.70;;
17145;SDS011;8688;54.444;18.444;2023-04-25T07:12:11;4.75;;;3.15;;
17145;SDS011;8688;54.444;18.444;2023-04-25T07:14:39;3.75;;;2.67;;
17145;SDS011;8688;54.444;18.444;2023-04-25T07:17:08;4.15;;;2.67;;
17145;SDS011;8688;54.444;18.444;2023-04-25T07:19:44;4.07;;;2.97;;
17145;SDS011;8688;54.444;18.444;2023-04-25T07:22:26;4.70;;;2.65;;
17145;SDS011;8688;54.444;18.444;2023-04-25T07:24:54;6.20;;;2.83;;
17145;SDS011;8688;54.444;18.444;2023-04-25T07:27:24;5.18;;;2.80;;
17145;SDS011;8688;54.444;18.444;2023-04-25T07:29:51;4.93;;;3.03;;
17145;SDS011;8688;54.444;18.444;2023-04-25T07:32:20;5.28;;;2.95;;
17145;SDS011;8688;54.444;18.444;2023-04-25T07:34:48;5.70;;;2.40;;
17145;SDS011;8688;54.444;18.444;2023-04-25T07:37:16;2.95;;;2.13;;
17145;SDS011;8688;54.444;18.444;2023-04-25T07:39:44;4.45;;;1.90;;
17145;SDS011;8688;54.444;18.444;2023-04-25T07:42:12;3.90;;;2.47;;
17145;SDS011;8688;54.444;18.444;2023-04-25T07:45:07;4.53;;;2.25;;
17145;SDS011;8688;54.444;18.444;2023-04-25T07:47:56;5.43;;;2.90;;
17145;SDS011;8688;54.444;18.444;2023-04-25T07:53:40;2.17;;;1.92;;
17145;SDS011;8688;54.444;18.444;2023-04-25T07:56:07;4.70;;;2.22;;
17145;SDS011;8688;54.444;18.444;2023-04-25T07:58:34;1.60;;;1.50;;
17145;SDS011;8688;54.444;18.444;2023-04-25T08:01:02;2.85;;;1.75;;
17145;SDS011;8688;54.444;18.444;2023-04-25T08:03:31;2.80;;;1.45;;
17145;SDS011;8688;54.444;18.444;2023-04-25T08:05:58;3.05;;;1.58;;
17145;SDS011;8688;54.444;18.444;2023-04-25T08:08:26;2.03;;;1.70;;
17145;SDS011;8688;54.444;18.444;2023-04-25T08:10:53;2.30;;;1.70;;
17145;SDS011;8688;54.444;18.444;2023-04-25T08:13:21;2.15;;;1.83;;
17145;SDS011;8688;54.444;18.444;2023-04-25T08:15:48;4.10;;;1.60;;
17145;SDS011;8688;54.444;18.444;2023-04-25T08:18:15;2.70;;;1.92;;
17145;SDS011;8688;54.444;18.444;2023-04-25T08:20:45;3.33;;;1.60;;
17145;SDS011;8688;54.444;18.444;2023-04-25T08:23:12;4.68;;;1.70;;
17145;SDS011;8688;54.444;18.444;2023-04-25T08:25:40;2.53;;;1.73;;
17145;SDS011;8688;54.444;18.444;2023-04-25T08:28:07;2.47;;;1.70;;
17145;SDS011;8688;54.444;18.444;2023-04-25T08:30:34;3.42;;;1.90;;
17145;SDS011;8688;54.444;18.444;2023-04-25T08:33:03;3.83;;;1.65;;
17145;SDS011;8688;54.444;18.444;2023-04-25T08:35:30;3.15;;;1.77;;
17145;SDS011;8688;54.444;18.444;2023-04-25T08:37:59;3.60;;;2.10;;
17145;SDS011;8688;54.444;18.444;2023-04-25T08:40:27;6.05;;;1.90;;
17145;SDS011;8688;54.444;18.444;2023-04-25T08:42:55;2.90;;;2.13;;
17145;SDS011;8688;54.444;18.444;2023-04-25T08:45:24;3.40;;;2.10;;
17145;SDS011;8688;54.444;18.444;2023-04-25T08:47:54;2.22;;;1.88;;
17145;SDS011;8688;54.444;18.444;2023-04-25T08:50:22;2.67;;;2.00;;
17145;SDS011;8688;54.444;18.444;2023-04-25T08:52:52;2.00;;;1.80;;
17145;SDS011;8688;54.444;18.444;2023-04-25T08:55:22;2.80;;;2.13;;
17145;SDS011;8688;54.444;18.444;2023-04-25T08:57:50;3.67;;;2.30;;
17145;SDS011;8688;54.444;18.444;2023-04-25T09:00:20;2.95;;;2.10;;
17145;SDS011;8688;54.444;18.444;2023-04-25T09:02:48;4.43;;;2.00;;
17145;SDS011;8688;54.444;18.444;2023-04-25T09:05:16;3.97;;;1.83;;
17145;SDS011;8688;54.444;18.444;2023-04-25T09:07:45;2.60;;;1.77;;
17145;SDS011;8688;54.444;18.444;2023-04-25T09:10:12;4.72;;;1.80;;
17145;SDS011;8688;54.444;18.444;2023-04-25T09:12:41;3.45;;;1.90;;
17145;SDS011;8688;54.444;18.444;2023-04-25T09:15:09;3.95;;;2.03;;
17145;SDS011;8688;54.444;18.444;2023-04-25T09:17:39;3.47;;;2.25;;
17145;SDS011;8688;54.444;18.444;2023-04-25T09:20:10;6.13;;;4.35;;
17145;SDS011;8688;54.444;18.444;2023-04-25T09:22:39;20.77;;;11.75;;
17145;SDS011;8688;54.444;18.444;2023-04-25T09:25:08;5.38;;;3.45;;
17145;SDS011;8688;54.444;18.444;2023-04-25T09:27:36;2.08;;;1.60;;
17145;SDS011;8688;54.444;18.444;2023-04-25T09:30:18;4.53;;;1.90;;
17145;SDS011;8688;54.444;18.444;2023-04-25T09:32:56;16.40;;;2.30;;
17145;SDS011;8688;54.444;18.444;2023-04-25T09:35:24;4.30;;;1.70;;
17145;SDS011;8688;54.444;18.444;2023-04-25T09:37:52;4.22;;;1.83;;
17145;SDS011;8688;54.444;18.444;2023-04-25T09:40:20;2.33;;;1.88;;
17145;SDS011;8688;54.444;18.444;2023-04-25T09:43:04;2.15;;;1.55;;
17145;SDS011;8688;54.444;18.444;2023-04-25T09:45:40;3.95;;;1.73;;
17145;SDS011;8688;54.444;18.444;2023-04-25T09:48:11;3.10;;;1.77;;
17145;SDS011;8688;54.444;18.444;2023-04-25T09:50:45;3.40;;;1.38;;
17145;SDS011;8688;54.444;18.444;2023-04-25T09:53:19;3.72;;;1.58;;
17145;SDS011;8688;54.444;18.444;2023-04-25T09:55:46;3.50;;;1.92;;
17145;SDS011;8688;54.444;18.444;2023-04-25T09:58:15;2.95;;;1.45;;
17145;SDS011;8688;54.444;18.444;2023-04-25T10:00:43;2.28;;;1.38;;
17145;SDS011;8688;54.444;18.444;2023-04-25T10:03:11;4.28;;;1.70;;
17145;SDS011;8688;54.444;18.444;2023-04-25T10:05:40;2.10;;;1.90;;
17145;SDS011;8688;54.444;18.444;2023-04-25T10:08:09;1.98;;;1.65;;
17145;SDS011;8688;54.444;18.444;2023-04-25T10:10:38;2.20;;;1.80;;
17145;SDS011;8688;54.444;18.444;2023-04-25T10:13:07;4.22;;;2.00;;
17145;SDS011;8688;54.444;18.444;2023-04-25T10:15:37;5.00;;;1.70;;
17145;SDS011;8688;54.444;18.444;2023-04-25T10:18:05;2.40;;;1.40;;
17145;SDS011;8688;54.444;18.444;2023-04-25T10:20:33;4.05;;;1.60;;
17145;SDS011;8688;54.444;18.444;2023-04-25T10:23:03;4.78;;;1.55;;
17145;SDS011;8688;54.444;18.444;2023-04-25T10:25:40;13.25;;;1.88;;
17145;SDS011;8688;54.444;18.444;2023-04-25T10:28:08;4.78;;;1.60;;
17145;SDS011;8688;54.444;18.444;2023-04-25T10:30:37;3.55;;;1.70;;
17145;SDS011;8688;54.444;18.444;2023-04-25T10:33:29;4.28;;;1.63;;
17145;SDS011;8688;54.444;18.444;2023-04-25T10:36:08;4.78;;;1.77;;
17145;SDS011;8688;54.444;18.444;2023-04-25T10:38:36;3.15;;;1.75;;
17145;SDS011;8688;54.444;18.444;2023-04-25T10:41:04;2.35;;;1.80;;
17145;SDS011;8688;54.444;18.444;2023-04-25T10:43:49;2.47;;;1.70;;
17145;SDS011;8688;54.444;18.444;2023-04-25T10:46:44;4.57;;;1.88;;
17145;SDS011;8688;54.444;18.444;2023-04-25T10:49:31;4.07;;;2.42;;
17145;SDS011;8688;54.444;18.444;2023-04-25T10:52:13;3.35;;;2.20;;
17145;SDS011;8688;54.444;18.444;2023-04-25T10:54:42;5.72;;;2.30;;
17145;SDS011;8688;54.444;18.444;2023-04-25T10:57:32;4.72;;;2.30;;
17145;SDS011;8688;54.444;18.444;2023-04-25T11:00:08;3.70;;;2.10;;
17145;SDS011;8688;54.444;18.444;2023-04-25T11:02:42;3.25;;;1.98;;
17145;SDS011;8688;54.444;18.444;2023-04-25T11:05:22;2.63;;;1.73;;
17145;SDS011;8688;54.444;18.444;2023-04-25T11:07:54;3.05;;;2.00;;
17145;SDS011;8688;54.444;18.444;2023-04-25T11:10:25;7.60;;;4.50;;
17145;SDS011;8688;54.444;18.444;2023-04-25T11:12:53;3.05;;;2.00;;
17145;SDS011;8688;54.444;18.444;2023-04-25T11:15:20;4.03;;;2.30;;
17145;SDS011;8688;54.444;18.444;2023-04-25T11:17:50;6.65;;;2.40;;
17145;SDS011;8688;54.444;18.444;2023-04-25T11:20:18;8.93;;;2.97;;
17145;SDS011;8688;54.444;18.444;2023-04-25T11:22:45;10.85;;;2.60;;
17145;SDS011;8688;54.444;18.444;2023-04-25T11:25:14;8.75;;;3.03;;
17145;SDS011;8688;54.444;18.444;2023-04-25T11:27:51;5.50;;;2.30;;
17145;SDS011;8688;54.444;18.444;2023-04-25T11:30:19;4.65;;;2.10;;
17145;SDS011;8688;54.444;18.444;2023-04-25T11:32:47;7.28;;;2.60;;
17145;SDS011;8688;54.444;18.444;2023-04-25T11:35:17;6.07;;;2.30;;
17145;SDS011;8688;54.444;18.444;2023-04-25T11:43:47;4.20;;;1.90;;
17145;SDS011;8688;54.444;18.444;2023-04-25T11:49:25;3.35;;;1.80;;
17145;SDS011;8688;54.444;18.444;2023-04-25T11:51:57;4.65;;;1.90;;
17145;SDS011;8688;54.444;18.444;2023-04-25T11:54:25;5.97;;;1.85;;
17145;SDS011;8688;54.444;18.444;2023-04-25T11:56:52;3.58;;;1.90;;
17145;SDS011;8688;54.444;18.444;2023-04-25T11:59:23;7.20;;;1.98;;
17145;SDS011;8688;54.444;18.444;2023-04-25T12:01:52;5.25;;;2.08;;
17145;SDS011;8688;54.444;18.444;2023-04-25T12:04:20;5.10;;;2.22;;
17145;SDS011;8688;54.444;18.444;2023-04-25T12:06:51;5.13;;;2.08;;
17145;SDS011;8688;54.444;18.444;2023-04-25T12:09:19;7.22;;;2.35;;
17145;SDS011;8688;54.444;18.444;2023-04-25T12:12:11;8.77;;;2.30;;
17145;SDS011;8688;54.444;18.444;2023-04-25T12:14:38;4.50;;;2.10;;
17145;SDS011;8688;54.444;18.444;2023-04-25T12:17:06;4.85;;;2.25;;
17145;SDS011;8688;54.444;18.444;2023-04-25T12:20:08;2.90;;;1.75;;
17145;SDS011;8688;54.444;18.444;2023-04-25T12:22:38;9.25;;;2.78;;
17145;SDS011;8688;54.444;18.444;2023-04-25T12:25:10;5.90;;;2.00;;
17145;SDS011;8688;54.444;18.444;2023-04-25T12:27:38;4.18;;;2.05;;
17145;SDS011;8688;54.444;18.444;2023-04-25T12:30:07;5.63;;;2.30;;
17145;SDS011;8688;54.444;18.444;2023-04-25T12:32:36;7.65;;;2.20;;
17145;SDS011;8688;54.444;18.444;2023-04-25T12:37:32;5.03;;;2.10;;
17145;SDS011;8688;54.444;18.444;2023-04-25T12:40:01;5.88;;;2.20;;
17145;SDS011;8688;54.444;18.444;2023-04-25T12:42:29;6.55;;;2.70;;
17145;SDS011;8688;54.444;18.444;2023-04-25T12:44:56;7.85;;;2.35;;
17145;SDS011;8688;54.444;18.444;2023-04-25T12:47:24;6.45;;;2.67;;
17145;SDS011;8688;54.444;18.444;2023-04-25T12:49:52;4.35;;;2.28;;
17145;SDS011;8688;54.444;18.444;2023-04-25T12:52:19;6.82;;;2.40;;
17145;SDS011;8688;54.444;18.444;2023-04-25T12:54:47;6.70;;;2.47;;
17145;SDS011;8688;54.444;18.444;2023-04-25T12:57:16;5.55;;;2.30;;
17145;SDS011;8688;54.444;18.444;2023-04-25T12:59:43;5.63;;;2.55;;
17145;SDS011;8688;54.444;18.444;2023-04-25T13:02:10;9.95;;;4.10;;
17145;SDS011;8688;54.444;18.444;2023-04-25T13:04:38;14.95;;;7.65;;
17145;SDS011;8688;54.444;18.444;2023-04-25T13:07:05;11.85;;;3.30;;
17145;SDS011;8688;54.444;18.444;2023-04-25T13:09:32;5.93;;;2.53;;
17145;SDS011;8688;54.444;18.444;2023-04-25T13:12:00;4.13;;;2.30;;
17145;SDS011;8688;54.444;18.444;2023-04-25T13:14:28;3.65;;;1.85;;
17145;SDS011;8688;54.444;18.444;2023-04-25T13:16:56;5.90;;;3.03;;
17145;SDS011;8688;54.444;18.444;2023-04-25T13:19:23;5.93;;;2.15;;
17145;SDS011;8688;54.444;18.444;2023-04-25T13:21:51;7.03;;;2.83;;
17145;SDS011;8688;54.444;18.444;2023-04-25T13:24:18;4.88;;;2.35;;
17145;SDS011;8688;54.444;18.444;2023-04-25T13:26:46;7.70;;;2.95;;
17145;SDS011;8688;54.444;18.444;2023-04-25T13:29:13;9.38;;;4.80;;
17145;SDS011;8688;54.444;18.444;2023-04-25T13:31:42;7.28;;;2.22;;
17145;SDS011;8688;54.444;18.444;2023-04-25T13:34:09;5.75;;;2.65;;
17145;SDS011;8688;54.444;18.444;2023-04-25T13:36:37;18.77;;;7.57;;
17145;SDS011;8688;54.444;18.444;2023-04-25T13:39:05;22.33;;;10.93;;
17145;SDS011;8688;54.444;18.444;2023-04-25T13:41:32;2.67;;;1.80;;
17145;SDS011;8688;54.444;18.444;2023-04-25T13:44:00;2.13;;;1.67;;
17145;SDS011;8688;54.444;18.444;2023-04-25T13:46:28;2.47;;;1.60;;
17145;SDS011;8688;54.444;18.444;2023-04-25T13:48:56;2.88;;;1.67;;
17145;SDS011;8688;54.444;18.444;2023-04-25T13:51:24;7.65;;;4.35;;
17145;SDS011;8688;54.444;18.444;2023-04-25T13:53:51;7.03;;;3.28;;
17145;SDS011;8688;54.444;18.444;2023-04-25T13:56:19;6.10;;;2.47;;
17145;SDS011;8688;54.444;18.444;2023-04-25T13:58:47;5.70;;;2.70;;
17145;SDS011;8688;54.444;18.444;2023-04-25T14:01:14;9.32;;;2.70;;
17145;SDS011;8688;54.444;18.444;2023-04-25T14:03:42;11.05;;;2.60;;
17145;SDS011;8688;54.444;18.444;2023-04-25T14:06:11;9.35;;;2.67;;
17145;SDS011;8688;54.444;18.444;2023-04-25T14:08:38;9.98;;;2.00;;
17145;SDS011;8688;54.444;18.444;2023-04-25T14:11:06;5.95;;;2.30;;
17145;SDS011;8688;54.444;18.444;2023-04-25T14:13:34;7.55;;;2.28;;
17145;SDS011;8688;54.444;18.444;2023-04-25T14:16:01;10.90;;;2.55;;
17145;SDS011;8688;54.444;18.444;2023-04-25T14:18:29;8.82;;;2.30;;
17145;SDS011;8688;54.444;18.444;2023-04-25T14:20:57;7.15;;;2.22;;
17145;SDS011;8688;54.444;18.444;2023-04-25T14:23:26;5.32;;;2.20;;
17145;SDS011;8688;54.444;18.444;2023-04-25T14:25:54;10.27;;;2.60;;
17145;SDS011;8688;54.444;18.444;2023-04-25T14:28:21;10.23;;;2.80;;
17145;SDS011;8688;54.444;18.444;2023-04-25T14:30:48;9.10;;;3.20;;
17145;SDS011;8688;54.444;18.444;2023-04-25T14:33:16;8.82;;;3.00;;
17145;SDS011;8688;54.444;18.444;2023-04-25T14:35:43;9.80;;;3.15;;
17145;SDS011;8688;54.444;18.444;2023-04-25T14:38:11;11.88;;;3.38;;
17145;SDS011;8688;54.444;18.444;2023-04-25T14:40:40;8.73;;;3.08;;
17145;SDS011;8688;54.444;18.444;2023-04-25T14:43:07;12.07;;;2.78;;
17145;SDS011;8688;54.444;18.444;2023-04-25T14:45:35;9.02;;;2.58;;
17145;SDS011;8688;54.444;18.444;2023-04-25T14:48:02;9.48;;;2.92;;
17145;SDS011;8688;54.444;18.444;2023-04-25T14:50:33;12.60;;;2.90;;
17145;SDS011;8688;54.444;18.444;2023-04-25T14:53:00;10.70;;;2.70;;
17145;SDS011;8688;54.444;18.444;2023-04-25T14:55:28;7.68;;;2.75;;
17145;SDS011;8688;54.444;18.444;2023-04-25T14:57:57;11.90;;;3.10;;
17145;SDS011;8688;54.444;18.444;2023-04-25T15:00:25;10.93;;;2.88;;
17145;SDS011;8688;54.444;18.444;2023-04-25T15:02:52;7.90;;;2.22;;
17145;SDS011;8688;54.444;18.444;2023-04-25T15:05:19;11.52;;;2.80;;
17145;SDS011;8688;54.444;18.444;2023-04-25T15:07:47;6.63;;;2.30;;
17145;SDS011;8688;54.444;18.444;2023-04-25T15:10:16;5.65;;;2.65;;
17145;SDS011;8688;54.444;18.444;2023-04-25T15:12:44;12.90;;;3.78;;
17145;SDS011;8688;54.444;18.444;2023-04-25T15:15:13;8.32;;;2.45;;